Terminal Aerodrome Forecast
Issued by NWS Caribou, ME

Home | Current Version | Previous Version | Text Only | Print | Product List | Glossary On
Versions: 1 2 3 4 5 6 7 8 9 10 11 12
000
FTUS41 KCAR 261728
TAFCAR
TAF
KCAR 261728Z 2618/2718 05010G15KT 6SM -RA BR OVC035
     FM262100 04011KT P6SM OVC020
     FM271300 01006KT P6SM SCT020=

USA.gov is the U.S. government's official web portal to all federal, state and local government web resources and services.